Time;durP1;ratioP1;P1;durP2;ratioP2;P2;SDS_P1;SDS_P2;PMS_P1;PMS_P2;Temp;Humidity;BMP_temperature;BMP_pressure;BME280_temperature;BME280_humidity;BME280_pressure;Samples;Min_cycle;Max_cycle;Signal;HPM_P1;HPM_P2
2021/12/13 00:01:36;;;;;;;;;;;;;;;13.80;60.82;101490.19;4990519;28;6896;-72
2021/12/13 00:04:18;;;;;;;;;;;;;;;13.78;61.27;101490.91;5003433;28;7086;-72
2021/12/13 00:06:50;;;;;;;;;;;;;;;13.75;60.83;101492.53;5006194;28;7266;-72
2021/12/13 00:09:22;;;;;;;;;;;;;;;13.74;61.23;101498.50;4989753;28;6837;-72
2021/12/13 00:11:56;;;;;;;;;;;;;;;13.71;60.72;101493.19;5006317;28;6831;-72
2021/12/13 00:14:33;;;;;;;;;;;;;;;13.69;60.49;101497.34;4975931;28;6903;-72
2021/12/13 00:17:15;;;;;;;;;;;;;;;13.67;61.55;101504.13;4997930;28;7078;-72
2021/12/13 00:19:51;;;;;;;;;;;;;;;13.67;61.69;101501.53;5005436;28;7016;-71
2021/12/13 00:22:32;;;;;;;;;;;;;;;13.67;60.60;101501.53;5010280;28;6808;-71
2021/12/13 00:25:07;;;;;;;;;;;;;;;13.67;60.62;101504.13;5004837;28;6816;-71
2021/12/13 00:27:43;;;;;;;;;;;;;;;13.68;60.63;101507.59;5011095;28;7146;-71
2021/12/13 00:30:34;;;;;;;;;;;;;;;13.68;60.64;101502.44;4968267;28;6995;-71
2021/12/13 00:33:42;;;;;;;;;;;;;;;13.65;60.58;101503.16;5009185;28;6831;-71
2021/12/13 00:36:17;;;;;;;;;;;;;;;13.59;61.68;101500.25;5006634;28;7219;-71
2021/12/13 00:38:59;;;;;;;;;;;;;;;13.57;61.44;101501.84;5004499;28;7035;-71
2021/12/13 00:41:29;;;;;;;;;;;;;;;13.54;60.86;101505.16;4994701;28;6984;-71
2021/12/13 00:44:23;;;;;;;;;;;;;;;13.51;60.39;101506.66;4969395;28;7327;-71
2021/12/13 00:46:52;;;;;;;;;;;;;;;13.49;61.50;101519.47;4974533;28;6824;-71
2021/12/13 00:49:25;;;;;;;;;;;;;;;13.50;60.84;101515.19;4996325;28;6812;-71
2021/12/13 00:51:56;;;;;;;;;;;;;;;13.48;61.27;101512.56;4989091;28;7023;-72
2021/12/13 00:54:42;;;;;;;;;;;;;;;13.50;60.99;101516.09;5010581;28;6824;-71
2021/12/13 00:57:39;;;;;;;;;;;;;;;13.52;61.18;101521.31;4997025;28;6816;-71
2021/12/13 01:00:29;;;;;;;;;;;;;;;13.52;60.84;101518.75;5007433;28;6812;-71
2021/12/13 01:03:11;;;;;;;;;;;;;;;13.54;61.35;101519.72;5016761;28;7114;-71
2021/12/13 01:06:14;;;;;;;;;;;;;;;13.54;60.77;101515.44;5012148;28;6804;-72
2021/12/13 01:09:18;;;;;;;;;;;;;;;13.54;61.66;101514.59;5013823;28;6827;-72
2021/12/13 01:11:54;;;;;;;;;;;;;;;13.55;61.20;101518.91;4983045;28;7456;-72
2021/12/13 01:14:55;;;;;;;;;;;;;;;13.55;61.24;101518.91;4971873;28;6991;-72
2021/12/13 01:17:42;;;;;;;;;;;;;;;13.55;61.64;101526.66;4995719;28;6903;-71
2021/12/13 01:20:33;;;;;;;;;;;;;;;13.57;61.27;101522.47;5016158;28;6897;-71
2021/12/13 01:23:12;;;;;;;;;;;;;;;13.57;61.61;101525.03;4984671;28;6824;-71
2021/12/13 01:25:59;;;;;;;;;;;;;;;13.57;61.21;101519.88;5001631;28;7210;-71
2021/12/13 01:28:32;;;;;;;;;;;;;;;13.58;60.35;101519.06;5000435;28;6902;-72
2021/12/13 01:31:13;;;;;;;;;;;;;;;13.57;61.56;101518.22;4996386;28;6984;-72
2021/12/13 01:33:44;;;;;;;;;;;;;;;13.57;61.42;101512.16;5012713;28;7224;-72
2021/12/13 01:36:21;;;;;;;;;;;;;;;13.55;61.08;101514.63;5018273;28;7051;-72
2021/12/13 01:39:03;;;;;;;;;;;;;;;13.55;60.86;101519.78;4982976;28;7068;-72
2021/12/13 01:41:43;;;;;;;;;;;;;;;13.56;60.92;101533.56;5021990;28;6816;-72
2021/12/13 01:44:25;;;;;;;;;;;;;;;13.54;61.66;101527.47;5019020;28;8165;-72
2021/12/13 01:47:10;;;;;;;;;;;;;;;13.53;61.40;101536.84;5001467;28;7319;-72
2021/12/13 01:49:44;;;;;;;;;;;;;;;13.54;60.66;101537.75;4973922;28;6987;-71
2021/12/13 01:52:28;;;;;;;;;;;;;;;13.52;60.60;101539.34;5005496;28;6880;-71
2021/12/13 01:55:04;;;;;;;;;;;;;;;13.51;61.29;101545.31;4990977;28;6978;-71
2021/12/13 01:57:47;;;;;;;;;;;;;;;13.51;60.32;101550.44;4992108;28;6907;-71
2021/12/13 02:03:57;;;;;;;;;;;;;;;13.47;60.40;101546.81;4975946;28;7502;-72
2021/12/13 02:06:28;;;;;;;;;;;;;;;13.46;61.25;101540.78;5002480;28;6812;-72
2021/12/13 02:08:59;;;;;;;;;;;;;;;13.46;61.13;101540.78;4987080;28;7203;-72
2021/12/13 02:11:30;;;;;;;;;;;;;;;13.48;61.01;101543.47;4973014;28;7030;-72
2021/12/13 02:14:11;;;;;;;;;;;;;;;13.49;61.30;101546.91;5010979;28;7341;-72
2021/12/13 02:19:54;;;;;;;;;;;;;;;13.46;60.08;101542.47;4974582;28;6832;-72
2021/12/13 02:22:42;;;;;;;;;;;;;;;13.45;61.02;101539.03;4996654;28;6979;-72
2021/12/13 02:25:14;;;;;;;;;;;;;;;13.44;60.96;101539.84;5007065;28;6812;-71
2021/12/13 02:27:47;;;;;;;;;;;;;;;13.44;60.08;101541.47;5004138;28;8055;-72
2021/12/13 02:30:31;;;;;;;;;;;;;;;13.43;60.57;101527.72;4986169;28;6815;-72
2021/12/13 02:32:58;;;;;;;;;;;;;;;13.43;60.27;101540.59;4986022;28;6816;-72
2021/12/13 02:35:37;;;;;;;;;;;;;;;13.44;60.67;101537.25;4999641;28;6804;-71
2021/12/13 02:38:09;;;;;;;;;;;;;;;13.43;60.79;101532.88;4985553;28;7106;-71
2021/12/13 02:40:35;;;;;;;;;;;;;;;13.43;60.77;101545.75;4989029;28;6795;-71
2021/12/13 02:43:05;;;;;;;;;;;;;;;13.44;60.95;101549.19;4998916;28;6804;-71
2021/12/13 02:45:42;;;;;;;;;;;;;;;13.43;60.48;101540.59;5000190;28;6982;-71
2021/12/13 02:48:24;;;;;;;;;;;;;;;13.44;60.81;101538.91;5003775;28;8112;-71
2021/12/13 02:51:01;;;;;;;;;;;;;;;13.44;60.75;101550.13;5002275;28;6807;-71
2021/12/13 02:53:39;;;;;;;;;;;;;;;13.43;60.68;101543.19;5001733;28;8864;-71
2021/12/13 02:56:06;;;;;;;;;;;;;;;13.45;60.40;101544.19;4997308;28;6820;-71
2021/12/13 02:58:36;;;;;;;;;;;;;;;13.45;60.96;101544.19;4988092;28;6983;-72
2021/12/13 03:01:24;;;;;;;;;;;;;;;13.45;60.92;101536.47;4985897;28;6958;-72
2021/12/13 03:03:57;;;;;;;;;;;;;;;13.44;60.74;101547.56;4986270;28;6996;-72
2021/12/13 03:06:37;;;;;;;;;;;;;;;13.44;60.09;101544.06;4970115;28;7236;-72
2021/12/13 03:09:16;;;;;;;;;;;;;;;13.44;60.81;101542.41;4983425;28;6892;-72
2021/12/13 03:11:47;;;;;;;;;;;;;;;13.45;60.30;101544.19;5003059;28;6923;-72
2021/12/13 03:14:29;;;;;;;;;;;;;;;13.48;60.51;101543.47;4988912;28;7340;-72
2021/12/13 03:17:07;;;;;;;;;;;;;;;13.46;60.61;101545.94;4986242;28;6859;-72
2021/12/13 03:19:48;;;;;;;;;;;;;;;13.46;61.25;101545.03;4985505;28;7207;-72
2021/12/13 03:22:42;;;;;;;;;;;;;;;13.45;60.67;101554.47;5005233;28;6899;-72
2021/12/13 03:26:00;;;;;;;;;;;;;;;13.45;60.36;101553.59;5003608;28;6824;-72
2021/12/13 03:29:11;;;;;;;;;;;;;;;13.42;60.70;101546.56;5003377;28;6832;-72
2021/12/13 03:31:46;;;;;;;;;;;;;;;13.41;61.30;101544.75;5004346;28;7050;-71
2021/12/13 03:34:24;;;;;;;;;;;;;;;13.42;60.92;101544.00;5002914;28;6990;-71
2021/12/13 03:37:02;;;;;;;;;;;;;;;13.42;60.75;101544.00;4985557;28;6816;-71
2021/12/13 03:39:39;;;;;;;;;;;;;;;13.43;60.34;101552.59;5004285;28;7172;-71
2021/12/13 03:42:28;;;;;;;;;;;;;;;13.42;60.98;101549.13;5005744;28;6819;-72
2021/12/13 03:45:03;;;;;;;;;;;;;;;13.44;60.91;101544.97;5002883;28;6819;-73
2021/12/13 03:47:38;;;;;;;;;;;;;;;13.44;60.16;101556.94;5001855;28;6823;-73
2021/12/13 03:50:14;;;;;;;;;;;;;;;13.46;60.07;101563.06;4987501;28;7286;-73
2021/12/13 03:52:44;;;;;;;;;;;;;;;13.47;61.32;101563.16;5003277;28;6819;-73
2021/12/13 03:55:17;;;;;;;;;;;;;;;13.47;60.31;101563.16;4986607;28;6811;-72
2021/12/13 03:57:59;;;;;;;;;;;;;;;13.50;60.75;101565.03;4970575;28;6984;-73
2021/12/13 04:00:31;;;;;;;;;;;;;;;13.53;60.51;101561.75;4986477;28;6808;-74
2021/12/13 04:03:02;;;;;;;;;;;;;;;13.53;60.97;101557.47;5000064;28;7315;-74
2021/12/13 04:05:30;;;;;;;;;;;;;;;13.55;59.91;101565.28;4986596;28;6966;-74
2021/12/13 04:08:02;;;;;;;;;;;;;;;13.54;60.14;101556.66;4985816;28;7016;-74
2021/12/13 04:10:45;;;;;;;;;;;;;;;13.56;60.16;101556.75;5004704;28;6803;-74
2021/12/13 04:13:16;;;;;;;;;;;;;;;13.55;60.92;101555.84;5005142;28;6816;-74
2021/12/13 04:16:16;;;;;;;;;;;;;;;13.56;60.37;101556.75;4986923;28;7215;-74
2021/12/13 04:21:35;;;;;;;;;;;;;;;13.59;60.68;101562.06;5009455;28;6836;-73
2021/12/13 04:24:09;;;;;;;;;;;;;;;13.60;60.12;101566.41;4988775;28;6900;-73
2021/12/13 04:26:49;;;;;;;;;;;;;;;13.59;60.16;101560.38;4972662;28;6812;-73
2021/12/13 04:29:26;;;;;;;;;;;;;;;13.59;60.63;101565.53;5009961;28;6816;-73
2021/12/13 04:31:53;;;;;;;;;;;;;;;13.58;59.76;101557.72;5010258;28;6959;-74
2021/12/13 04:34:24;;;;;;;;;;;;;;;13.57;60.45;101558.53;4989227;28;6827;-74
2021/12/13 04:36:54;;;;;;;;;;;;;;;13.55;59.95;101558.44;4989773;28;6800;-74
2021/12/13 04:39:33;;;;;;;;;;;;;;;13.54;59.84;101561.81;4989828;28;7372;-74
2021/12/13 04:42:09;;;;;;;;;;;;;;;13.55;60.37;101570.44;4989238;28;6808;-74
2021/12/13 04:44:56;;;;;;;;;;;;;;;13.55;60.00;101565.28;4989332;28;6970;-74
2021/12/13 04:47:48;;;;;;;;;;;;;;;13.53;59.65;101566.91;4994450;28;7280;-74
2021/12/13 04:50:24;;;;;;;;;;;;;;;13.55;60.11;101554.97;5007252;28;7860;-74
2021/12/13 04:52:51;;;;;;;;;;;;;;;13.55;59.58;101562.72;4988696;28;6831;-74
2021/12/13 04:55:33;;;;;;;;;;;;;;;13.57;59.32;101566.25;5009200;28;7235;-74
2021/12/13 04:58:04;;;;;;;;;;;;;;;13.57;59.64;101563.66;5007858;28;7203;-74
2021/12/13 05:00:42;;;;;;;;;;;;;;;13.56;59.10;101562.78;5007767;28;6804;-74
2021/12/13 05:03:13;;;;;;;;;;;;;;;13.57;59.63;101563.66;4986611;28;7069;-74
2021/12/13 05:05:39;;;;;;;;;;;;;;;13.58;60.20;101563.78;4987490;28;7198;-74
2021/12/13 05:08:11;;;;;;;;;;;;;;;13.59;59.45;101560.38;4988876;28;7318;-74
2021/12/13 05:10:37;;;;;;;;;;;;;;;13.60;59.11;101567.31;5007427;28;7315;-74
2021/12/13 05:13:11;;;;;;;;;;;;;;;13.61;60.13;101570.75;5007379;28;6816;-74
2021/12/13 05:16:09;;;;;;;;;;;;;;;13.62;59.24;101572.56;4991041;28;6816;-74
2021/12/13 05:18:51;;;;;;;;;;;;;;;13.62;58.92;101577.72;4990886;28;7185;-74
2021/12/13 05:21:33;;;;;;;;;;;;;;;13.63;60.14;101584.63;4988206;28;7004;-74
2021/12/13 05:24:03;;;;;;;;;;;;;;;13.63;59.54;101576.00;4990790;28;7272;-73
2021/12/13 05:26:38;;;;;;;;;;;;;;;13.63;59.07;101571.75;5010816;28;6824;-73
2021/12/13 05:29:22;;;;;;;;;;;;;;;13.63;58.72;101579.47;5006032;28;6815;-73
2021/12/13 05:31:57;;;;;;;;;;;;;;;13.63;59.37;101573.41;4975557;28;7188;-74
2021/12/13 05:34:37;;;;;;;;;;;;;;;13.64;59.29;101581.25;4994832;28;6812;-74
2021/12/13 05:37:08;;;;;;;;;;;;;;;13.65;59.10;101575.28;4989863;28;7066;-74
2021/12/13 05:39:38;;;;;;;;;;;;;;;13.65;59.66;101579.53;5008447;28;7030;-74
2021/12/13 05:42:10;;;;;;;;;;;;;;;13.65;59.63;101577.84;4988903;28;6824;-74
2021/12/13 05:44:44;;;;;;;;;;;;;;;13.63;58.91;101579.47;4992185;28;6819;-74
2021/12/13 05:47:26;;;;;;;;;;;;;;;13.62;59.64;101577.72;5012888;28;6932;-74
2021/12/13 05:49:53;;;;;;;;;;;;;;;13.62;59.46;101577.72;4989648;28;7073;-74
2021/12/13 05:52:34;;;;;;;;;;;;;;;13.63;59.20;101583.72;4993278;28;7114;-74
2021/12/13 05:55:12;;;;;;;;;;;;;;;13.64;58.84;101580.34;4970306;28;7060;-74
2021/12/13 05:57:49;;;;;;;;;;;;;;;13.65;58.90;101584.69;4989809;28;7142;-74
2021/12/13 06:00:28;;;;;;;;;;;;;;;13.66;59.66;101589.03;4994560;28;7277;-74
2021/12/13 06:03:16;;;;;;;;;;;;;;;13.66;58.58;101591.59;5014068;28;6970;-74
2021/12/13 06:05:52;;;;;;;;;;;;;;;13.64;59.40;101596.69;5012690;28;7000;-74
2021/12/13 06:08:30;;;;;;;;;;;;;;;13.64;59.58;101596.69;4993913;28;7009;-74
2021/12/13 06:11:07;;;;;;;;;;;;;;;13.62;59.53;101598.31;4982339;28;7076;-74
2021/12/13 06:13:57;;;;;;;;;;;;;;;13.63;59.21;101596.59;5012610;28;7085;-74
2021/12/13 06:16:25;;;;;;;;;;;;;;;13.60;58.52;101589.59;5013937;28;6819;-74
2021/12/13 06:18:57;;;;;;;;;;;;;;;13.59;59.86;101588.72;5006775;28;6964;-74
2021/12/13 06:21:53;;;;;;;;;;;;;;;13.57;58.83;101592.91;5012103;28;7483;-74
2021/12/13 06:24:51;;;;;;;;;;;;;;;13.56;59.22;101591.09;4992352;28;7381;-74
2021/12/13 06:27:32;;;;;;;;;;;;;;;13.55;60.00;101589.34;5014111;28;6827;-74
2021/12/13 06:30:22;;;;;;;;;;;;;;;13.55;59.88;101588.47;4999195;28;6928;-74
2021/12/13 06:32:59;;;;;;;;;;;;;;;13.54;59.37;101591.84;5013320;28;7220;-74
2021/12/13 06:35:49;;;;;;;;;;;;;;;13.54;59.55;101594.44;4980753;28;8504;-74
2021/12/13 06:38:23;;;;;;;;;;;;;;;13.52;58.93;101588.28;5014705;28;6888;-74
2021/12/13 06:41:14;;;;;;;;;;;;;;;13.52;60.20;101591.75;5018217;28;6859;-74
2021/12/13 06:43:59;;;;;;;;;;;;;;;13.51;59.79;101591.66;5002179;28;7132;-74
2021/12/13 06:46:25;;;;;;;;;;;;;;;13.49;59.61;101591.59;5001853;28;6943;-74
2021/12/13 06:49:05;;;;;;;;;;;;;;;13.50;59.77;101592.47;4993873;28;6795;-73
2021/12/13 06:51:50;;;;;;;;;;;;;;;13.49;59.41;101591.59;5014011;28;6804;-73
2021/12/13 06:54:32;;;;;;;;;;;;;;;13.46;59.93;101591.41;5003859;28;7125;-73
2021/12/13 06:57:22;;;;;;;;;;;;;;;13.47;60.12;101599.22;5016814;28;6808;-73
2021/12/13 07:00:06;;;;;;;;;;;;;;;13.45;60.39;101603.41;4992679;28;7187;-73
2021/12/13 07:02:49;;;;;;;;;;;;;;;13.44;59.44;101605.84;4986811;28;7044;-73
2021/12/13 07:05:33;;;;;;;;;;;;;;;13.42;60.31;101598.06;5001906;28;6816;-73
2021/12/13 07:08:05;;;;;;;;;;;;;;;13.42;59.79;101599.75;4999684;28;6935;-73
2021/12/13 07:11:11;;;;;;;;;;;;;;;13.42;59.60;101602.31;4987762;28;7930;-74
2021/12/13 07:13:47;;;;;;;;;;;;;;;13.40;59.94;101609.06;4979046;28;7166;-74
2021/12/13 07:16:25;;;;;;;;;;;;;;;13.38;60.10;101619.28;4983615;28;6983;-74
2021/12/13 07:19:02;;;;;;;;;;;;;;;13.37;59.64;101614.03;5003049;28;7148;-74
2021/12/13 07:22:03;;;;;;;;;;;;;;;13.37;60.04;101627.81;5003851;28;7067;-74
2021/12/13 07:24:33;;;;;;;;;;;;;;;13.36;59.84;101622.56;4984283;28;7099;-74
2021/12/13 07:27:23;;;;;;;;;;;;;;;13.35;60.29;101619.13;5002959;28;6966;-74
2021/12/13 07:29:55;;;;;;;;;;;;;;;13.34;60.58;101619.91;5005054;28;7239;-74
2021/12/13 07:32:40;;;;;;;;;;;;;;;13.33;60.64;101615.59;5000617;28;6904;-74
2021/12/13 07:35:13;;;;;;;;;;;;;;;13.32;59.90;101617.25;4998388;28;7335;-74
2021/12/13 07:37:57;;;;;;;;;;;;;;;13.34;60.09;101617.34;4987094;28;7091;-74
2021/12/13 07:40:33;;;;;;;;;;;;;;;13.33;59.79;101621.59;4987977;28;6808;-74
2021/12/13 07:43:16;;;;;;;;;;;;;;;13.33;60.57;101618.16;5001410;28;6903;-74
2021/12/13 07:46:05;;;;;;;;;;;;;;;13.33;60.50;101626.75;4986872;28;6804;-74
2021/12/13 07:48:40;;;;;;;;;;;;;;;13.33;60.81;101631.03;5004208;28;7172;-74
2021/12/13 07:51:48;;;;;;;;;;;;;;;13.32;59.84;101631.81;4980869;28;6784;-74
2021/12/13 07:54:18;;;;;;;;;;;;;;;13.31;60.75;101630.94;4995309;28;6819;-74
2021/12/13 07:57:00;;;;;;;;;;;;;;;13.32;60.47;101637.84;5001291;28;7072;-75
2021/12/13 07:59:34;;;;;;;;;;;;;;;13.32;60.69;101639.53;4999318;28;7240;-74
2021/12/13 08:02:22;;;;;;;;;;;;;;;13.33;60.58;101638.75;5005471;28;7269;-74
2021/12/13 08:05:07;;;;;;;;;;;;;;;13.34;60.79;101650.81;5001544;28;6996;-74
2021/12/13 08:07:48;;;;;;;;;;;;;;;13.35;60.72;101660.31;4971005;28;6999;-74
2021/12/13 08:10:24;;;;;;;;;;;;;;;13.37;60.92;101665.53;4998138;28;6883;-74
2021/12/13 08:13:01;;;;;;;;;;;;;;;13.37;60.08;101674.16;4981725;28;6820;-74
2021/12/13 08:16:10;;;;;;;;;;;;;;;13.38;60.19;101673.34;5000283;28;6899;-74
2021/12/13 08:18:41;;;;;;;;;;;;;;;13.40;60.58;101683.75;4989072;28;6967;-74
2021/12/13 08:21:23;;;;;;;;;;;;;;;13.41;60.44;101683.81;4987274;28;6883;-74
2021/12/13 08:23:59;;;;;;;;;;;;;;;13.43;59.64;101681.34;5001116;28;7206;-74
2021/12/13 08:26:42;;;;;;;;;;;;;;;13.45;59.90;101683.25;4997531;28;7257;-74
2021/12/13 08:29:19;;;;;;;;;;;;;;;13.46;60.05;101686.69;4987148;28;6800;-74
2021/12/13 08:31:53;;;;;;;;;;;;;;;13.49;60.38;101676.59;5001116;28;7209;-74
2021/12/13 08:34:57;;;;;;;;;;;;;;;13.52;60.81;101686.16;4983399;28;7087;-74
2021/12/13 08:37:33;;;;;;;;;;;;;;;13.53;59.91;101675.06;4982954;28;6804;-74
2021/12/13 08:40:25;;;;;;;;;;;;;;;13.56;60.92;101680.38;4995791;28;7256;-74
2021/12/13 08:42:56;;;;;;;;;;;;;;;13.58;60.88;101668.47;4984741;28;7169;-74
2021/12/13 08:45:35;;;;;;;;;;;;;;;13.60;60.75;101666.88;5002511;28;7107;-74
2021/12/13 08:48:13;;;;;;;;;;;;;;;13.63;60.73;101673.88;4969624;28;7205;-74
2021/12/13 08:50:49;;;;;;;;;;;;;;;13.66;59.95;101677.53;5000693;28;6819;-74
2021/12/13 08:53:35;;;;;;;;;;;;;;;13.70;59.86;101679.47;4999415;28;7294;-74
2021/12/13 08:56:23;;;;;;;;;;;;;;;13.74;59.73;101680.50;4985758;28;7235;-74
2021/12/13 08:59:08;;;;;;;;;;;;;;;13.78;59.58;101679.91;4998088;28;6823;-74
2021/12/13 09:01:46;;;;;;;;;;;;;;;13.84;60.21;101682.78;5007748;28;6913;-74
2021/12/13 09:04:32;;;;;;;;;;;;;;;13.88;59.34;101677.03;4985212;28;7149;-74
2021/12/13 09:07:05;;;;;;;;;;;;;;;13.92;59.92;101675.50;4986598;28;6902;-74
2021/12/13 09:09:33;;;;;;;;;;;;;;;13.95;60.30;101679.91;5010254;28;7243;-74
2021/12/13 09:12:08;;;;;;;;;;;;;;;13.98;59.50;101682.69;4990213;28;6815;-74
2021/12/13 09:14:38;;;;;;;;;;;;;;;13.99;58.73;101682.75;4986464;28;7492;-74
2021/12/13 09:17:26;;;;;;;;;;;;;;;13.99;58.89;101687.03;4999803;28;7936;-74
2021/12/13 09:20:36;;;;;;;;;;;;;;;13.99;58.64;101681.88;4969839;28;6864;-74
2021/12/13 09:23:19;;;;;;;;;;;;;;;13.99;59.96;101687.03;5008825;28;7242;-74
2021/12/13 09:26:11;;;;;;;;;;;;;;;14.02;59.45;101689.78;5010429;28;6819;-74
2021/12/13 09:29:04;;;;;;;;;;;;;;;14.03;58.83;101684.72;4976717;28;7243;-74
2021/12/13 09:31:36;;;;;;;;;;;;;;;14.07;59.60;101687.44;4990343;28;6812;-74
2021/12/13 09:34:20;;;;;;;;;;;;;;;14.09;58.75;101689.31;5009793;28;6948;-74
2021/12/13 09:36:51;;;;;;;;;;;;;;;14.12;59.39;101689.47;5002945;28;7173;-74
2021/12/13 09:39:30;;;;;;;;;;;;;;;14.16;58.88;101698.25;4990365;28;7867;-74
2021/12/13 09:42:11;;;;;;;;;;;;;;;14.22;58.76;101708.91;4987215;28;6971;-74
2021/12/13 09:44:58;;;;;;;;;;;;;;;14.27;59.60;101699.72;5011880;28;7008;-74
2021/12/13 09:47:37;;;;;;;;;;;;;;;14.34;59.31;101705.22;5009684;28;6991;-74
2021/12/13 09:50:20;;;;;;;;;;;;;;;14.41;58.99;101710.75;5010349;28;6991;-74
2021/12/13 09:52:57;;;;;;;;;;;;;;;14.46;58.01;101704.97;4997176;28;7409;-74
2021/12/13 09:55:37;;;;;;;;;;;;;;;14.50;58.66;101718.13;4991414;28;6816;-74
2021/12/13 09:58:07;;;;;;;;;;;;;;;14.55;58.33;101708.06;4995826;28;7232;-74
2021/12/13 10:00:49;;;;;;;;;;;;;;;14.61;58.27;101710.06;4991204;28;6877;-74
2021/12/13 10:03:47;;;;;;;;;;;;;;;14.63;57.85;101701.59;5004887;28;6982;-74
2021/12/13 10:06:20;;;;;;;;;;;;;;;14.64;57.13;101707.63;5008749;28;7182;-74
2021/12/13 10:09:23;;;;;;;;;;;;;;;14.68;56.75;101713.03;4991153;28;6912;-72
2021/12/13 10:12:16;;;;;;;;;;;;;;;14.71;56.61;101702.84;4982845;28;6832;-72
2021/12/13 10:15:02;;;;;;;;;;;;;;;14.74;57.74;101704.75;5008126;28;6815;-72
2021/12/13 10:17:35;;;;;;;;;;;;;;;14.75;57.23;101703.94;5010265;28;6911;-72
2021/12/13 10:20:38;;;;;;;;;;;;;;;14.77;56.67;101697.16;4988763;28;7184;-72
2021/12/13 10:23:13;;;;;;;;;;;;;;;14.81;56.87;101706.84;5010837;28;7034;-72
2021/12/13 10:25:46;;;;;;;;;;;;;;;14.85;56.74;101713.06;5015501;28;6815;-72
2021/12/13 10:28:25;;;;;;;;;;;;;;;14.89;56.18;101706.38;5011839;28;6903;-72
2021/12/13 10:31:21;;;;;;;;;;;;;;;14.92;56.65;101703.94;5009244;28;6891;-72
2021/12/13 10:33:47;;;;;;;;;;;;;;;14.95;56.95;101697.22;5007880;28;6911;-72
2021/12/13 10:36:15;;;;;;;;;;;;;;;15.04;56.06;101701.97;4991279;28;6807;-71
2021/12/13 10:38:53;;;;;;;;;;;;;;;15.12;55.94;101707.53;4981030;28;6967;-72
2021/12/13 10:41:36;;;;;;;;;;;;;;;15.17;55.87;101710.34;5014976;28;8748;-72
2021/12/13 10:44:09;;;;;;;;;;;;;;;15.14;55.61;101701.63;4967790;28;7016;-72
2021/12/13 10:46:41;;;;;;;;;;;;;;;15.18;55.28;101713.00;4988455;28;6828;-72
2021/12/13 10:49:22;;;;;;;;;;;;;;;15.22;55.32;101706.28;4978392;28;7031;-72
2021/12/13 10:51:59;;;;;;;;;;;;;;;15.31;55.47;101692.97;5014840;28;8128;-72
2021/12/13 10:54:34;;;;;;;;;;;;;;;15.43;55.73;101700.41;4970114;28;7856;-72
2021/12/13 10:57:18;;;;;;;;;;;;;;;15.53;54.85;101693.19;4986027;28;6828;-72
2021/12/13 10:59:47;;;;;;;;;;;;;;;15.63;54.49;101691.91;5011717;28;7253;-71
2021/12/13 11:02:21;;;;;;;;;;;;;;;15.66;54.06;101688.59;4992993;28;8446;-71
2021/12/13 11:05:20;;;;;;;;;;;;;;;15.65;54.44;101695.47;4998039;28;6812;-71
2021/12/13 11:07:48;;;;;;;;;;;;;;;15.58;53.99;101683.06;4997224;28;6984;-72
2021/12/13 11:10:21;;;;;;;;;;;;;;;15.53;54.19;101682.84;4996577;28;6836;-72
2021/12/13 11:12:53;;;;;;;;;;;;;;;15.48;54.52;101683.44;5017757;28;6811;-72
2021/12/13 11:15:36;;;;;;;;;;;;;;;15.41;54.29;101677.97;5016148;28;6824;-72
2021/12/13 11:18:09;;;;;;;;;;;;;;;15.38;54.72;101683.00;4953577;28;6994;-72
2021/12/13 11:20:44;;;;;;;;;;;;;;;15.38;54.93;101679.50;4997880;28;6808;-72
2021/12/13 11:23:15;;;;;;;;;;;;;;;15.37;55.07;101678.63;4997097;28;7302;-72
2021/12/13 11:25:52;;;;;;;;;;;;;;;15.35;55.17;101671.63;4972328;28;6808;-72
2021/12/13 11:28:19;;;;;;;;;;;;;;;15.34;54.89;101669.84;4985675;28;6812;-72
2021/12/13 11:30:48;;;;;;;;;;;;;;;15.31;54.68;101670.56;5000496;28;6828;-72
2021/12/13 11:33:22;;;;;;;;;;;;;;;15.26;55.13;101666.91;5016623;28;6962;-73
2021/12/13 11:36:06;;;;;;;;;;;;;;;15.22;55.05;101676.19;5012572;28;7907;-72
2021/12/13 11:39:00;;;;;;;;;;;;;;;15.14;54.60;101678.38;5018792;28;8120;-72
2021/12/13 11:41:58;;;;;;;;;;;;;;;15.09;54.53;101690.19;4997277;28;6907;-72
2021/12/13 11:44:27;;;;;;;;;;;;;;;15.05;54.84;101683.06;5018806;28;6903;-72
2021/12/13 11:47:29;;;;;;;;;;;;;;;15.03;55.25;101683.84;5004598;28;7326;-73
2021/12/13 11:50:29;;;;;;;;;;;;;;;15.00;55.38;101689.72;5001528;28;8099;-72
2021/12/13 11:53:38;;;;;;;;;;;;;;;14.97;55.07;101679.25;4987219;28;7155;-72
2021/12/13 11:56:49;;;;;;;;;;;;;;;14.95;54.98;101679.16;4991175;28;7916;-72
2021/12/13 12:00:03;;;;;;;;;;;;;;;14.95;54.91;101678.25;4991532;28;7003;-72
2021/12/13 12:03:30;;;;;;;;;;;;;;;14.94;54.64;101676.50;5005565;28;7293;-72
2021/12/13 12:06:46;;;;;;;;;;;;;;;14.94;54.62;101673.91;5002756;28;6843;-72
2021/12/13 12:09:53;;;;;;;;;;;;;;;14.93;54.48;101675.63;4985608;28;7485;-72
2021/12/13 12:12:53;;;;;;;;;;;;;;;14.93;54.62;101664.41;4989082;28;6816;-72
2021/12/13 12:15:21;;;;;;;;;;;;;;;14.92;54.97;101666.13;4987383;28;7011;-72
2021/12/13 12:17:50;;;;;;;;;;;;;;;14.94;54.01;101666.16;5002620;28;6820;-72
2021/12/13 12:20:30;;;;;;;;;;;;;;;14.95;54.93;101662.78;4999579;28;7393;-72
2021/12/13 12:23:20;;;;;;;;;;;;;;;14.95;54.56;101660.19;4972137;28;7188;-72
2021/12/13 12:25:45;;;;;;;;;;;;;;;14.98;54.57;101662.94;4994850;28;7236;-72
2021/12/13 12:28:15;;;;;;;;;;;;;;;14.98;55.25;101661.22;4999979;28;6792;-72
2021/12/13 12:30:48;;;;;;;;;;;;;;;14.99;54.62;101654.41;4998026;28;6993;-72
2021/12/13 12:33:38;;;;;;;;;;;;;;;14.99;54.31;101660.44;4981856;28;8629;-72
2021/12/13 12:36:22;;;;;;;;;;;;;;;14.98;54.21;101663.81;4984361;28;7220;-72
2021/12/13 12:39:38;;;;;;;;;;;;;;;14.96;54.14;101667.13;5005548;28;7049;-72
2021/12/13 12:42:24;;;;;;;;;;;;;;;14.94;54.39;101671.31;4986713;28;7202;-72
2021/12/13 12:44:56;;;;;;;;;;;;;;;14.91;54.70;101672.06;4992375;28;7103;-72
2021/12/13 12:47:34;;;;;;;;;;;;;;;14.91;54.94;101666.03;5006442;28;6999;-72
2021/12/13 12:50:22;;;;;;;;;;;;;;;14.89;54.13;101671.09;5006847;28;6851;-72
2021/12/13 12:53:04;;;;;;;;;;;;;;;14.85;54.30;101670.06;5009017;28;7422;-72
2021/12/13 12:55:52;;;;;;;;;;;;;;;14.82;54.33;101669.91;4991688;28;7087;-72
2021/12/13 12:58:26;;;;;;;;;;;;;;;14.82;54.35;101664.75;4984864;28;7012;-72
2021/12/13 13:00:58;;;;;;;;;;;;;;;14.83;54.88;101670.81;4971833;28;7570;-72
2021/12/13 13:03:36;;;;;;;;;;;;;;;14.82;54.14;101664.75;4994319;28;6891;-72
2021/12/13 13:06:10;;;;;;;;;;;;;;;14.81;54.32;101662.97;5003992;28;6792;-72
2021/12/13 13:08:41;;;;;;;;;;;;;;;14.79;54.41;101664.59;5010189;28;6800;-72
2021/12/13 13:11:35;;;;;;;;;;;;;;;14.79;54.34;101654.28;4985973;28;7156;-72
2021/12/13 13:14:17;;;;;;;;;;;;;;;14.79;54.16;101658.53;4993550;28;7001;-72
2021/12/13 13:16:53;;;;;;;;;;;;;;;14.79;53.90;101662.03;5005262;28;6899;-72
2021/12/13 13:19:38;;;;;;;;;;;;;;;14.79;53.66;101661.13;4987348;28;6816;-72
2021/12/13 13:22:20;;;;;;;;;;;;;;;14.77;54.27;101655.00;4990033;28;8498;-72
2021/12/13 13:24:57;;;;;;;;;;;;;;;14.76;54.34;101659.25;4988921;28;6824;-72
2021/12/13 13:27:30;;;;;;;;;;;;;;;14.75;54.08;101657.50;5008372;28;6816;-72
2021/12/13 13:29:57;;;;;;;;;;;;;;;14.75;53.38;101654.91;5005617;28;8272;-72
2021/12/13 13:32:24;;;;;;;;;;;;;;;14.74;54.53;101657.44;4967608;28;6892;-72
2021/12/13 13:34:57;;;;;;;;;;;;;;;14.72;54.21;101652.16;4966117;28;6959;-72
2021/12/13 13:37:34;;;;;;;;;;;;;;;14.73;53.75;101651.38;5006929;28;6998;-72
2021/12/13 13:40:06;;;;;;;;;;;;;;;14.71;53.63;101655.53;4987781;28;7039;-72
2021/12/13 13:42:49;;;;;;;;;;;;;;;14.70;53.65;101656.34;4989452;28;7237;-72
2021/12/13 13:45:23;;;;;;;;;;;;;;;14.69;53.97;101659.75;4989367;28;7132;-71
2021/12/13 13:48:07;;;;;;;;;;;;;;;14.67;53.29;101658.75;4991189;28;7226;-72
2021/12/13 13:50:48;;;;;;;;;;;;;;;14.65;53.82;101662.97;5005960;28;7023;-72
2021/12/13 13:53:40;;;;;;;;;;;;;;;14.63;53.88;101669.75;4994450;28;8040;-72
2021/12/13 13:56:35;;;;;;;;;;;;;;;14.61;53.96;101668.78;5008039;28;6816;-72
2021/12/13 13:59:23;;;;;;;;;;;;;;;14.60;53.76;101664.44;4971914;28;6812;-72
2021/12/13 14:02:05;;;;;;;;;;;;;;;14.58;53.37;101675.56;5010555;28;7256;-72
2021/12/13 14:04:40;;;;;;;;;;;;;;;14.57;53.60;101667.72;5010025;28;7077;-72
2021/12/13 14:07:26;;;;;;;;;;;;;;;14.56;54.29;101673.69;4990254;28;7004;-72